Startpagina
METAR-TAF:

METAR-TAF

Vliegvelden :

Luchthaven Managua

Managua, Nicaragua

breedte: 12-09N, lengte: 086-10W, hoogte: 50 m

Actueel weer

Dit bericht is 34 minuten geleden gemaakt, om 19:00 UTC
Wind 8 kt uit het oostnoordoosten
Temperatuur 31°C
Vochtigheid 49%
Druk 1012 hPa
Zicht 10 km of meer
Weinig wolken op 2800 ft
Gebroken wolken op 6000 ft

METAR: MNMG 241900Z 07008KT 9999 FEW028 BKN060 31/19 Q1011 A2988 NOSIG

Tijdstip: 13:34 (19:34 UTC)

Verwachting

Dit bericht is 3 uur en het 48 minuten geleden gemaakt, om 15:46 UTC
Verwachting geldig van 24 om 18 UTC tot 25 om 18 UTC
Wind 8 kt uit het oostzuidoosten
Zicht 10 km of meer
Weinig wolken op 2400 ft
Kans 30% :
Tijdelijke
van 24 om 21 UTC tot 25 om 03 UTC
Zicht: 8000 m
Verspreide wolken op 2300 ft

TAF: MNMG 241546Z 2418/2518 11008KT 9999 FEW024 PROB30 TEMPO 2421/2503 8000 DZ/VCRA SCT023

Waarnemingen en weersverwachtingen van meer dan 4000 vliegvelden (METAR en TAF).

De beschikbare stations zijn de gele en rode punten op de kaart.

Ga met uw muis naar het station om de naam te zien.

Klik dan om waarnemingen en weersverwachtingen te zien.

kaart wijzigen: klik op de groene knoppen met een zwart kruis om in te zoomen, op de groene knop met een streepje om uit te zoomen of op de groene pijlen voor aangrenzende kaarten.


METAR-TAF: